Latest Weather Observations for Kowanyama

IDQ60801

Issued at 11:05 pm EST Tuesday 22 July 2014 (issued every 30 minutes, with the page automatically refreshed every 10 minutes)

About weather observations | Map of weather stations | Latest weather observations for QLD | Other Formats
Station Details ID: 029038 Name: KOWANYAMA AIRPORT Lat: -15.48 Lon: 141.75 Height: 9.6 m
Data from the previous 72 hours. | See also: Recent months at Kowanyama
Date/Time
EST
Temp
°C
App
Temp
°C
Dew
Point
Rel
Hum
%
Delta-T
°C
Wind Press
QNH
hPa
Press
MSL
hPa
Rain
since 9 am
mm
Dir
 
Spd
km/h
Gust
km/h
Spd
kts
Gust
kts
22/11:00pm 17.3 18.5 14.9 86 1.4 ESE 2 7 1 4 1015.8 - 0.0
22/10:30pm 17.7 19.2 15.7 88 1.2 SE 2 6 1 3 1015.7 - 0.0
22/10:00pm 18.3 18.8 15.6 84 1.6 SSW 7 7 4 4 1015.7 - 0.0
22/09:30pm 18.9 19.4 15.6 81 1.9 SW 7 9 4 5 1015.6 - 0.0
22/09:00pm 19.5 19.8 16.0 80 2.1 SW 9 11 5 6 1015.6 1015.5 0.0
22/08:30pm 19.6 19.5 15.0 75 2.7 WSW 9 11 5 6 1015.6 - 0.0
22/08:00pm 20.2 20.6 14.8 71 3.2 NW 6 7 3 4 1015.6 - 0.0
22/07:30pm 21.4 20.9 14.8 66 3.9 WSW 11 13 6 7 1015.0 - 0.0
22/07:00pm 22.2 21.2 14.6 62 4.5 SW 13 19 7 10 1014.4 - 0.0
22/06:30pm 22.8 21.5 13.8 57 5.2 SW 13 17 7 9 1014.0 - 0.0
22/06:00pm 24.4 22.7 13.6 51 6.3 WSW 15 20 8 11 1013.8 1013.7 0.0
22/05:30pm 25.7 23.2 13.5 46 7.2 W 19 22 10 12 1013.5 - 0.0
22/05:00pm 26.9 24.8 13.6 44 7.9 W 17 22 9 12 1013.2 - 0.0
22/04:30pm 28.6 26.7 12.9 38 9.2 SW 15 20 8 11 1013.1 - 0.0
22/04:00pm 30.1 28.2 9.1 27 11.7 E 9 19 5 10 1013.0 - 0.0
22/03:30pm 29.3 26.6 8.9 28 11.3 ESE 13 22 7 12 1013.1 - 0.0
22/03:00pm 29.6 26.6 9.2 28 11.4 S 15 24 8 13 1013.4 1013.3 0.0
22/02:30pm 29.0 26.6 8.7 28 11.2 SE 11 20 6 11 1013.8 - 0.0
22/02:00pm 29.2 27.5 9.8 30 10.9 S 9 20 5 11 1014.2 - 0.0
22/01:30pm 29.0 27.0 10.2 31 10.6 SSW 11 20 6 11 1014.7 - 0.0
22/01:00pm 28.0 26.4 10.2 33 10.0 S 9 17 5 9 1015.5 - 0.0
22/12:30pm 27.6 26.2 10.8 35 9.5 E 9 15 5 8 1016.2 - 0.0
22/12:00pm 27.0 25.7 11.1 37 9.0 SE 9 17 5 9 1017.0 1016.9 0.0
22/11:30am 26.1 24.6 11.8 41 8.2 E 11 17 6 9 1017.5 - 0.0
22/11:00am 25.8 24.8 12.3 43 7.8 ENE 9 15 5 8 1017.8 - 0.0
22/10:30am 24.9 23.8 13.1 48 6.9 NE 11 17 6 9 1018.1 - 0.0
22/10:00am 23.3 21.5 13.2 53 5.8 ENE 15 24 8 13 1018.5 - 0.0
22/09:30am 22.2 20.8 13.5 57 5.0 NE 13 20 7 11 1018.7 - 0.0
22/09:00am 20.9 20.4 14.8 68 3.6 ENE 11 20 6 11 1018.6 1018.5 0.0
22/08:30am 19.0 19.0 15.3 79 2.2 E 9 13 5 7 1018.4 - 0.0
22/08:00am 16.2 17.5 14.2 88 1.1 CALM 0 0 0 0 1018.2 - 0.0
22/07:30am 14.8 16.0 13.8 94 0.6 CALM 0 0 0 0 1017.9 - 0.0
22/07:00am 14.0 14.8 12.6 91 0.8 CALM 0 0 0 0 1017.5 - 0.0
22/06:30am 15.6 15.7 14.0 90 0.9 NE 6 7 3 4 1017.2 - 0.0
22/06:00am 15.9 15.9 14.3 90 0.9 NE 7 9 4 5 1017.0 1016.9 0.0
22/05:30am 15.1 15.1 13.6 91 0.8 E 6 9 3 5 1016.9 - 0.0
22/05:00am 14.8 14.5 13.2 90 0.9 ENE 7 9 4 5 1016.9 - 0.0
22/04:30am 15.1 14.9 13.5 90 0.9 E 7 9 4 5 1016.8 - 0.0
22/04:00am 15.3 15.1 13.5 89 1.0 E 7 9 4 5 1016.9 - 0.0
22/03:30am 15.4 15.3 13.9 91 0.8 ENE 7 9 4 5 1016.8 - 0.0
22/03:00am 15.0 15.1 13.9 93 0.6 E 6 9 3 5 1017.0 1016.9 0.0
22/02:30am 15.6 15.7 14.5 93 0.6 ENE 7 9 4 5 1017.2 - 0.0
22/02:00am 15.8 17.3 14.7 93 0.6 CALM 0 0 0 0 1017.3 - 0.0
22/01:30am 16.1 16.0 15.0 93 0.6 ENE 9 11 5 6 1017.5 - 0.0
22/01:00am 16.4 16.1 15.4 94 0.6 NE 11 13 6 7 1017.7 - 0.0
22/12:30am 16.4 16.8 15.3 93 0.6 ENE 7 11 4 6 1017.5 - 0.0
22/12:00am 16.7 17.6 15.1 90 0.9 E 4 6 2 3 1017.4 1017.3 0.0
 
Date/Time
EST
Temp
°C
App
Temp
°C
Dew
Point
Rel
Hum
%
Delta-T
°C
Wind Press
QNH
hPa
Press
MSL
hPa
Rain
since 9 am
mm
Dir
 
Spd
km/h
Gust
km/h
Spd
kts
Gust
kts
21/11:30pm 17.3 17.8 15.5 89 1.1 S 7 9 4 5 1017.4 - 0.0
21/11:00pm 17.6 18.2 15.4 87 1.3 S 6 7 3 4 1017.6 - 0.0
21/10:30pm 18.0 18.4 15.4 85 1.5 S 7 9 4 5 1017.7 - 0.0
21/10:00pm 17.2 16.9 14.5 84 1.6 S 9 11 5 6 1017.8 - 0.0
21/09:30pm 18.2 18.7 15.1 82 1.8 SW 6 7 3 4 1017.7 - 0.0
21/09:00pm 19.3 19.7 15.4 78 2.3 WSW 7 9 4 5 1017.5 1017.4 0.0
21/08:30pm 19.8 20.1 15.0 74 2.8 WSW 7 9 4 5 1017.3 - 0.0
21/08:00pm 20.9 21.2 15.0 69 3.5 WNW 7 9 4 5 1017.0 - 0.0
21/07:30pm 21.0 20.7 14.4 66 3.9 WSW 9 13 5 7 1016.3 - 0.0
21/07:00pm 22.0 21.3 14.4 62 4.5 SW 11 15 6 8 1015.9 - 0.0
21/06:30pm 23.2 22.0 13.9 56 5.4 SW 13 19 7 10 1015.5 - 0.0
21/06:00pm 26.5 25.1 9.4 34 9.4 SE 7 9 4 5 1015.0 1014.9 0.0
21/05:30pm 28.1 25.1 7.9 28 10.9 SSE 13 17 7 9 1014.7 - 0.0
21/05:00pm 28.7 26.4 8.9 29 10.9 ESE 11 15 6 8 1014.6 - 0.0
21/04:30pm 29.1 26.0 8.7 28 11.2 SE 15 22 8 12 1014.5 - 0.0
21/04:00pm 28.8 26.1 9.0 29 10.9 ESE 13 24 7 13 1014.4 - 0.0
21/03:30pm 29.2 26.8 8.8 28 11.3 E 11 24 6 13 1014.3 - 0.0
21/03:00pm 29.0 26.0 9.2 29 11.0 SSE 15 24 8 13 1014.5 1014.4 0.0
21/02:30pm 28.9 25.0 8.6 28 11.2 SE 19 28 10 15 1014.8 - 0.0
21/02:00pm 28.1 24.6 8.9 30 10.6 SE 17 26 9 14 1015.2 - 0.0
21/01:30pm 28.3 25.9 10.0 32 10.3 SE 13 24 7 13 1015.7 - 0.0
21/01:00pm 26.9 23.9 9.3 33 9.7 ESE 15 24 8 13 1016.2 - 0.0
21/12:30pm 26.9 24.8 9.7 34 9.5 ESE 11 26 6 14 1016.6 - 0.0
21/12:00pm 26.3 24.3 11.6 40 8.4 E 13 20 7 11 1017.1 1017.0 0.0
21/11:30am 26.0 24.4 12.8 44 7.7 E 13 19 7 10 1017.6 - 0.0
21/11:00am 24.9 22.6 11.8 44 7.4 E 15 22 8 12 1018.0 - 0.0
21/10:30am 23.9 21.5 12.5 49 6.5 E 17 20 9 11 1018.4 - 0.0
21/10:00am 22.9 21.1 13.4 55 5.5 E 15 24 8 13 1018.7 - 0.0
21/09:30am 22.0 20.8 14.1 61 4.6 ENE 13 22 7 12 1018.7 - 0.0
21/09:00am 20.0 19.0 13.5 66 3.7 E 11 17 6 9 1018.8 1018.7 0.0
21/08:30am 18.1 19.4 14.0 77 2.3 CALM 0 9 0 5 1018.6 - 0.0
21/08:00am 13.9 14.6 12.3 90 0.9 CALM 0 0 0 0 1018.3 - 0.0
21/07:30am 11.7 11.9 10.4 92 0.7 CALM 0 0 0 0 1018.0 - 0.0
21/07:00am 11.8 12.1 10.9 94 0.5 CALM 0 0 0 0 1017.7 - 0.0
21/06:30am 11.8 12.1 10.9 94 0.5 CALM 0 0 0 0 1017.5 - 0.0
21/06:00am 11.8 12.0 10.4 91 0.7 CALM 0 0 0 0 1017.2 1017.1 0.0
21/05:30am 12.6 13.1 11.5 93 0.6 CALM 0 0 0 0 1017.1 - 0.0
21/05:00am 13.2 13.8 11.9 92 0.7 CALM 0 0 0 0 1017.0 - 0.0
21/04:30am 13.7 13.9 11.9 89 1.0 NE 2 6 1 3 1016.8 - 0.0
21/04:00am 14.7 15.2 12.9 89 1.0 ENE 2 6 1 3 1016.8 - 0.0
21/03:30am 15.6 15.3 12.7 83 1.6 ENE 6 7 3 4 1016.9 - 0.0
21/03:00am 16.1 15.9 13.0 82 1.7 ENE 6 7 3 4 1017.1 1017.0 0.0
21/02:30am 16.1 15.9 13.6 85 1.4 ENE 7 11 4 6 1017.1 - 0.0
21/02:00am 15.7 15.7 14.2 91 0.9 E 7 9 4 5 1017.2 - 0.0
21/01:30am 15.5 16.1 14.2 92 0.7 E 4 7 2 4 1017.4 - 0.0
21/01:00am 15.9 16.2 14.9 94 0.6 E 7 9 4 5 1017.4 - 0.0
21/12:30am 15.4 16.6 13.8 90 0.9 CALM 0 0 0 0 1017.4 - 0.0
21/12:00am 16.1 17.5 14.5 90 0.9 CALM 0 0 0 0 1017.3 1017.2 0.0
 
Date/Time
EST
Temp
°C
App
Temp
°C
Dew
Point
Rel
Hum
%
Delta-T
°C
Wind Press
QNH
hPa
Press
MSL
hPa
Rain
since 9 am
mm
Dir
 
Spd
km/h
Gust
km/h
Spd
kts
Gust
kts
20/11:30pm 16.7 18.1 14.5 87 1.3 CALM 0 0 0 0 1017.3 - 0.0
20/11:00pm 17.5 19.1 15.0 85 1.5 CALM 0 0 0 0 1017.4 - 0.0
20/10:30pm 17.8 18.7 16.0 89 1.1 S 6 7 3 4 1017.4 - 0.0
20/10:00pm 17.2 18.8 15.0 87 1.3 CALM 0 0 0 0 1017.4 - 0.0
20/09:30pm 18.3 19.9 14.8 80 2.0 CALM 0 0 0 0 1017.3 - 0.0
20/09:00pm 19.3 19.9 15.4 78 2.3 SW 6 7 3 4 1017.1 1017.0 0.0
20/08:30pm 19.9 21.1 14.9 73 2.9 SSW 2 6 1 3 1016.9 - 0.0
20/08:00pm 20.3 20.7 14.7 70 3.3 SW 6 7 3 4 1016.3 - 0.0
20/07:30pm 21.1 21.1 14.3 65 4.0 SW 7 9 4 5 1015.8 - 0.0
20/07:00pm 22.4 22.2 13.5 57 5.1 WSW 7 11 4 6 1015.5 - 0.0
20/06:30pm 23.9 22.4 13.2 51 6.2 WSW 13 19 7 10 1015.0 - 0.0
20/06:00pm 26.7 24.7 8.6 32 9.8 ESE 9 11 5 6 1014.5 1014.4 0.0
20/05:30pm 27.7 25.3 8.6 30 10.4 ESE 11 15 6 8 1014.3 - 0.0
20/05:00pm 28.3 25.8 8.1 28 11.0 SE 11 17 6 9 1014.1 - 0.0
20/04:30pm 28.6 25.0 8.3 28 11.1 SE 17 24 9 13 1013.9 - 0.0
20/04:00pm 28.8 25.2 8.5 28 11.1 SE 17 20 9 11 1013.8 - 0.0
20/03:30pm 28.9 26.2 9.1 29 11.0 E 13 26 7 14 1013.9 - 0.0
20/03:00pm 28.9 27.3 10.1 31 10.6 ESE 9 19 5 10 1013.9 1013.8 0.0
20/02:30pm 28.3 26.0 9.1 30 10.6 SE 11 20 6 11 1014.2 - 0.0
20/02:00pm 28.6 26.6 10.3 32 10.3 ESE 11 24 6 13 1014.6 - 0.0
20/01:30pm 28.2 26.3 10.4 33 10.0 E 11 17 6 9 1015.2 - 0.0
20/01:00pm 27.3 25.1 10.9 36 9.3 SE 13 20 7 11 1015.8 - 0.0
20/12:30pm 26.9 25.8 11.8 39 8.7 SE 9 26 5 14 1016.1 - 0.0
20/12:00pm 26.5 24.6 11.8 40 8.4 E 13 20 7 11 1016.9 1016.8 0.0
20/11:30am 26.5 24.8 12.5 41 8.1 E 13 19 7 10 1017.3 - 0.0
20/11:00am 25.5 23.9 12.7 45 7.4 ENE 13 20 7 11 1017.8 - 0.0
20/10:30am 23.9 22.2 12.5 49 6.5 E 13 20 7 11 1018.0 - 0.0
20/10:00am 22.7 20.3 12.6 53 5.8 ENE 17 24 9 13 1018.1 - 0.0
20/09:30am 21.5 19.2 12.9 58 4.9 ENE 17 24 9 13 1018.2 - 0.0
20/09:00am 20.4 18.6 13.4 64 4.0 ENE 15 22 8 12 1018.2 1018.1 0.0
20/08:30am 18.8 18.6 13.6 72 3.0 E 7 11 4 6 1017.9 - 0.0
20/08:00am 14.9 15.4 12.8 87 1.2 E 2 7 1 4 1017.5 - 0.0
20/07:30am 12.7 13.1 11.3 91 0.7 CALM 0 0 0 0 1017.3 - 0.0
20/07:00am 12.6 12.9 11.0 90 0.8 CALM 0 0 0 0 1016.9 - 0.0
20/06:30am 13.8 14.5 12.2 90 0.9 CALM 0 0 0 0 1016.4 - 0.0
20/06:00am 13.9 13.4 12.1 89 1.0 NE 6 7 3 4 1016.1 1016.0 0.0
20/05:30am 14.2 13.7 12.2 88 1.1 ENE 6 7 3 4 1015.8 - 0.0
20/05:00am 14.8 15.6 12.7 87 1.2 CALM 0 0 0 0 1015.6 - 0.0
20/04:30am 15.6 16.0 11.4 76 2.3 CALM 0 0 0 0 1015.7 - 0.0
20/04:00am 17.1 16.6 12.0 72 2.8 NE 6 7 3 4 1015.7 - 0.0
20/03:30am 18.3 17.8 12.1 67 3.4 NE 6 9 3 5 1015.8 - 0.0
20/03:00am 18.8 18.2 12.3 66 3.6 NE 7 13 4 7 1015.9 1015.8 0.0
20/02:30am 18.4 17.4 12.4 68 3.3 NNE 9 11 5 6 1016.0 - 0.0
20/02:00am 17.3 16.5 11.8 70 3.0 NE 7 11 4 6 1016.2 - 0.0
20/01:30am 16.0 15.2 11.2 73 2.6 E 6 7 3 4 1016.3 - 0.0
20/01:00am 15.8 15.1 12.0 78 2.1 E 7 9 4 5 1016.5 - 0.0
20/12:30am 15.7 15.2 12.8 83 1.6 ENE 7 9 4 5 1016.6 - 0.0
20/12:00am 15.9 16.8 12.8 82 1.7 CALM 0 0 0 0 1016.4 1016.3 0.0
 
Date/Time
EST
Temp
°C
App
Temp
°C
Dew
Point
Rel
Hum
%
Delta-T
°C
Wind Press
QNH
hPa
Press
MSL
hPa
Rain
since 9 am
mm
Dir
 
Spd
km/h
Gust
km/h
Spd
kts
Gust
kts
19/11:30pm 16.4 16.3 13.3 82 1.7 ESE 6 7 3 4 1016.4 - 0.0

Other Formats:

Comma delimited format used in spreadsheet applications
http://www.bom.gov.au/fwo/IDQ60801/IDQ60801.94268.axf

JavaScript Object Notation format (JSON) in row-major order
http://www.bom.gov.au/fwo/IDQ60801/IDQ60801.94268.json